sensor_id;sensor_type;location;lat;lon;timestamp;P1;durP1;ratioP1;P2;durP2;ratioP2
63653;SDS011;49809;47.418;19.080;2022-11-13T00:00:45;30.08;;;12.50;;
63653;SDS011;49809;47.418;19.080;2022-11-13T00:04:07;26.77;;;12.63;;
63653;SDS011;49809;47.418;19.080;2022-11-13T00:07:28;26.80;;;12.65;;
63653;SDS011;49809;47.418;19.080;2022-11-13T00:11:00;31.60;;;13.48;;
63653;SDS011;49809;47.418;19.080;2022-11-13T00:14:26;24.40;;;11.57;;
63653;SDS011;49809;47.418;19.080;2022-11-13T00:17:47;32.85;;;13.43;;
63653;SDS011;49809;47.418;19.080;2022-11-13T00:21:29;25.12;;;13.05;;
63653;SDS011;49809;47.418;19.080;2022-11-13T00:24:50;23.52;;;12.85;;
63653;SDS011;49809;47.418;19.080;2022-11-13T00:28:24;24.02;;;11.70;;
63653;SDS011;49809;47.418;19.080;2022-11-13T00:31:46;26.45;;;11.30;;
63653;SDS011;49809;47.418;19.080;2022-11-13T00:35:08;22.52;;;11.57;;
63653;SDS011;49809;47.418;19.080;2022-11-13T00:38:32;24.08;;;11.02;;
63653;SDS011;49809;47.418;19.080;2022-11-13T00:42:13;22.42;;;11.68;;
63653;SDS011;49809;47.418;19.080;2022-11-13T00:45:37;20.75;;;12.37;;
63653;SDS011;49809;47.418;19.080;2022-11-13T00:49:01;22.87;;;12.23;;
63653;SDS011;49809;47.418;19.080;2022-11-13T00:52:42;19.30;;;10.10;;
63653;SDS011;49809;47.418;19.080;2022-11-13T00:56:09;28.13;;;11.53;;
63653;SDS011;49809;47.418;19.080;2022-11-13T00:59:47;21.92;;;11.30;;
63653;SDS011;49809;47.418;19.080;2022-11-13T01:03:13;24.17;;;12.37;;
63653;SDS011;49809;47.418;19.080;2022-11-13T01:07:21;20.25;;;10.63;;
63653;SDS011;49809;47.418;19.080;2022-11-13T01:10:46;19.02;;;10.43;;
63653;SDS011;49809;47.418;19.080;2022-11-13T01:14:13;21.02;;;11.90;;
63653;SDS011;49809;47.418;19.080;2022-11-13T01:17:38;23.27;;;11.77;;
63653;SDS011;49809;47.418;19.080;2022-11-13T01:21:19;25.80;;;11.98;;
63653;SDS011;49809;47.418;19.080;2022-11-13T01:24:53;24.85;;;12.52;;
63653;SDS011;49809;47.418;19.080;2022-11-13T01:28:17;34.85;;;12.88;;
63653;SDS011;49809;47.418;19.080;2022-11-13T01:31:38;21.50;;;10.35;;
63653;SDS011;49809;47.418;19.080;2022-11-13T01:35:19;25.83;;;12.00;;
63653;SDS011;49809;47.418;19.080;2022-11-13T01:39:02;30.73;;;12.30;;
63653;SDS011;49809;47.418;19.080;2022-11-13T01:42:27;18.80;;;10.07;;
63653;SDS011;49809;47.418;19.080;2022-11-13T01:53:30;19.30;;;10.95;;
63653;SDS011;49809;47.418;19.080;2022-11-13T01:56:52;19.75;;;10.43;;
63653;SDS011;49809;47.418;19.080;2022-11-13T02:00:17;23.05;;;11.57;;
63653;SDS011;49809;47.418;19.080;2022-11-13T02:03:38;19.08;;;10.25;;
63653;SDS011;49809;47.418;19.080;2022-11-13T02:07:08;17.75;;;10.70;;
63653;SDS011;49809;47.418;19.080;2022-11-13T02:10:41;24.80;;;11.12;;
63653;SDS011;49809;47.418;19.080;2022-11-13T02:14:24;22.62;;;11.00;;
63653;SDS011;49809;47.418;19.080;2022-11-13T02:17:52;22.67;;;12.02;;
63653;SDS011;49809;47.418;19.080;2022-11-13T02:25:07;24.80;;;11.07;;
63653;SDS011;49809;47.418;19.080;2022-11-13T02:28:32;21.08;;;11.85;;
63653;SDS011;49809;47.418;19.080;2022-11-13T02:31:53;22.62;;;11.15;;
63653;SDS011;49809;47.418;19.080;2022-11-13T02:35:55;21.08;;;10.73;;
63653;SDS011;49809;47.418;19.080;2022-11-13T02:39:24;22.27;;;10.30;;
63653;SDS011;49809;47.418;19.080;2022-11-13T02:43:08;22.92;;;10.07;;
63653;SDS011;49809;47.418;19.080;2022-11-13T02:46:31;19.02;;;10.88;;
63653;SDS011;49809;47.418;19.080;2022-11-13T02:50:16;17.65;;;10.10;;
63653;SDS011;49809;47.418;19.080;2022-11-13T02:53:39;21.10;;;10.68;;
63653;SDS011;49809;47.418;19.080;2022-11-13T03:01:17;19.10;;;9.55;;
63653;SDS011;49809;47.418;19.080;2022-11-13T03:05:00;16.35;;;8.80;;
63653;SDS011;49809;47.418;19.080;2022-11-13T03:08:56;16.23;;;9.32;;
63653;SDS011;49809;47.418;19.080;2022-11-13T03:12:26;18.90;;;10.18;;
63653;SDS011;49809;47.418;19.080;2022-11-13T03:16:12;25.02;;;9.88;;
63653;SDS011;49809;47.418;19.080;2022-11-13T03:19:48;17.17;;;9.75;;
63653;SDS011;49809;47.418;19.080;2022-11-13T03:23:20;27.58;;;10.13;;
63653;SDS011;49809;47.418;19.080;2022-11-13T03:26:51;25.30;;;10.20;;
63653;SDS011;49809;47.418;19.080;2022-11-13T03:30:20;26.27;;;10.38;;
63653;SDS011;49809;47.418;19.080;2022-11-13T03:33:41;21.52;;;10.30;;
63653;SDS011;49809;47.418;19.080;2022-11-13T03:37:06;41.13;;;10.88;;
63653;SDS011;49809;47.418;19.080;2022-11-13T03:40:33;20.00;;;9.48;;
63653;SDS011;49809;47.418;19.080;2022-11-13T03:43:52;18.10;;;8.80;;
63653;SDS011;49809;47.418;19.080;2022-11-13T03:47:18;20.40;;;9.65;;
63653;SDS011;49809;47.418;19.080;2022-11-13T03:50:48;19.60;;;9.93;;
63653;SDS011;49809;47.418;19.080;2022-11-13T03:54:33;31.70;;;9.48;;
63653;SDS011;49809;47.418;19.080;2022-11-13T03:57:56;21.92;;;9.57;;
63653;SDS011;49809;47.418;19.080;2022-11-13T04:01:25;33.67;;;10.38;;
63653;SDS011;49809;47.418;19.080;2022-11-13T04:04:48;21.27;;;9.95;;
63653;SDS011;49809;47.418;19.080;2022-11-13T04:08:06;20.67;;;9.88;;
63653;SDS011;49809;47.418;19.080;2022-11-13T04:11:30;26.37;;;8.55;;
63653;SDS011;49809;47.418;19.080;2022-11-13T04:15:11;23.00;;;9.48;;
63653;SDS011;49809;47.418;19.080;2022-11-13T04:18:32;15.75;;;9.30;;
63653;SDS011;49809;47.418;19.080;2022-11-13T04:22:02;25.90;;;9.88;;
63653;SDS011;49809;47.418;19.080;2022-11-13T04:25:25;13.27;;;7.85;;
63653;SDS011;49809;47.418;19.080;2022-11-13T04:28:48;16.40;;;8.82;;
63653;SDS011;49809;47.418;19.080;2022-11-13T04:32:30;21.65;;;9.60;;
63653;SDS011;49809;47.418;19.080;2022-11-13T04:35:55;22.40;;;8.73;;
63653;SDS011;49809;47.418;19.080;2022-11-13T04:39:17;14.35;;;8.80;;
63653;SDS011;49809;47.418;19.080;2022-11-13T04:42:42;25.08;;;9.57;;
63653;SDS011;49809;47.418;19.080;2022-11-13T04:46:17;22.80;;;9.10;;
63653;SDS011;49809;47.418;19.080;2022-11-13T04:49:42;24.80;;;9.60;;
63653;SDS011;49809;47.418;19.080;2022-11-13T04:53:05;16.25;;;9.38;;
63653;SDS011;49809;47.418;19.080;2022-11-13T04:56:41;26.45;;;8.27;;
63653;SDS011;49809;47.418;19.080;2022-11-13T05:00:41;20.17;;;8.35;;
63653;SDS011;49809;47.418;19.080;2022-11-13T05:04:13;15.23;;;8.63;;
63653;SDS011;49809;47.418;19.080;2022-11-13T05:07:37;33.28;;;9.48;;
63653;SDS011;49809;47.418;19.080;2022-11-13T05:10:58;26.20;;;9.38;;
63653;SDS011;49809;47.418;19.080;2022-11-13T05:14:23;21.67;;;9.02;;
63653;SDS011;49809;47.418;19.080;2022-11-13T05:18:04;19.67;;;9.75;;
63653;SDS011;49809;47.418;19.080;2022-11-13T05:21:39;13.00;;;7.82;;
63653;SDS011;49809;47.418;19.080;2022-11-13T05:25:09;38.10;;;10.10;;
63653;SDS011;49809;47.418;19.080;2022-11-13T05:28:32;33.10;;;9.85;;
63653;SDS011;49809;47.418;19.080;2022-11-13T05:32:06;36.15;;;10.23;;
63653;SDS011;49809;47.418;19.080;2022-11-13T05:36:15;25.42;;;10.10;;
63653;SDS011;49809;47.418;19.080;2022-11-13T05:39:42;27.35;;;8.65;;
63653;SDS011;49809;47.418;19.080;2022-11-13T05:43:11;23.02;;;8.18;;
63653;SDS011;49809;47.418;19.080;2022-11-13T05:47:01;16.75;;;8.27;;
63653;SDS011;49809;47.418;19.080;2022-11-13T05:50:32;25.00;;;8.63;;
63653;SDS011;49809;47.418;19.080;2022-11-13T05:53:56;22.08;;;9.55;;
63653;SDS011;49809;47.418;19.080;2022-11-13T06:01:30;15.15;;;7.93;;
63653;SDS011;49809;47.418;19.080;2022-11-13T06:05:12;29.05;;;8.35;;
63653;SDS011;49809;47.418;19.080;2022-11-13T06:08:36;13.75;;;8.95;;
63653;SDS011;49809;47.418;19.080;2022-11-13T06:12:16;43.87;;;8.57;;
63653;SDS011;49809;47.418;19.080;2022-11-13T06:15:48;24.65;;;7.50;;
63653;SDS011;49809;47.418;19.080;2022-11-13T06:19:20;32.42;;;6.78;;
63653;SDS011;49809;47.418;19.080;2022-11-13T06:22:39;22.85;;;6.85;;
63653;SDS011;49809;47.418;19.080;2022-11-13T06:26:11;12.65;;;7.20;;
63653;SDS011;49809;47.418;19.080;2022-11-13T06:29:36;11.02;;;6.93;;
63653;SDS011;49809;47.418;19.080;2022-11-13T06:32:59;34.78;;;8.18;;
63653;SDS011;49809;47.418;19.080;2022-11-13T06:36:40;17.30;;;7.70;;
63653;SDS011;49809;47.418;19.080;2022-11-13T06:40:13;32.00;;;8.18;;
63653;SDS011;49809;47.418;19.080;2022-11-13T06:44:01;44.07;;;8.17;;
63653;SDS011;49809;47.418;19.080;2022-11-13T06:48:03;29.02;;;7.72;;
63653;SDS011;49809;47.418;19.080;2022-11-13T06:51:29;21.35;;;7.07;;
63653;SDS011;49809;47.418;19.080;2022-11-13T06:55:09;11.95;;;6.68;;
63653;SDS011;49809;47.418;19.080;2022-11-13T06:58:30;21.52;;;7.85;;
63653;SDS011;49809;47.418;19.080;2022-11-13T07:02:01;33.40;;;8.00;;
63653;SDS011;49809;47.418;19.080;2022-11-13T07:06:07;14.57;;;6.90;;
63653;SDS011;49809;47.418;19.080;2022-11-13T07:13:31;16.17;;;7.30;;
63653;SDS011;49809;47.418;19.080;2022-11-13T07:16:59;16.02;;;8.07;;
63653;SDS011;49809;47.418;19.080;2022-11-13T07:20:17;11.65;;;7.25;;
63653;SDS011;49809;47.418;19.080;2022-11-13T07:23:49;22.42;;;8.25;;
63653;SDS011;49809;47.418;19.080;2022-11-13T07:27:29;17.85;;;6.95;;
63653;SDS011;49809;47.418;19.080;2022-11-13T07:30:51;35.22;;;7.47;;
63653;SDS011;49809;47.418;19.080;2022-11-13T07:34:14;32.38;;;7.75;;
63653;SDS011;49809;47.418;19.080;2022-11-13T07:37:53;17.83;;;7.40;;
63653;SDS011;49809;47.418;19.080;2022-11-13T07:41:12;35.13;;;7.70;;
63653;SDS011;49809;47.418;19.080;2022-11-13T07:44:47;19.05;;;7.75;;
63653;SDS011;49809;47.418;19.080;2022-11-13T07:52:01;19.62;;;7.53;;
63653;SDS011;49809;47.418;19.080;2022-11-13T07:55:37;30.30;;;7.85;;
63653;SDS011;49809;47.418;19.080;2022-11-13T07:59:25;30.25;;;7.78;;
63653;SDS011;49809;47.418;19.080;2022-11-13T08:03:08;16.87;;;7.80;;
63653;SDS011;49809;47.418;19.080;2022-11-13T08:06:53;16.48;;;7.62;;
63653;SDS011;49809;47.418;19.080;2022-11-13T08:10:17;31.55;;;8.18;;
63653;SDS011;49809;47.418;19.080;2022-11-13T08:14:01;25.27;;;9.05;;
63653;SDS011;49809;47.418;19.080;2022-11-13T08:17:41;22.95;;;8.98;;
63653;SDS011;49809;47.418;19.080;2022-11-13T08:25:03;18.90;;;8.77;;
63653;SDS011;49809;47.418;19.080;2022-11-13T08:28:21;24.75;;;9.52;;
63653;SDS011;49809;47.418;19.080;2022-11-13T08:31:46;23.77;;;8.57;;
63653;SDS011;49809;47.418;19.080;2022-11-13T08:35:26;19.98;;;8.13;;
63653;SDS011;49809;47.418;19.080;2022-11-13T08:38:51;27.42;;;9.18;;
63653;SDS011;49809;47.418;19.080;2022-11-13T08:42:22;18.95;;;10.00;;
63653;SDS011;49809;47.418;19.080;2022-11-13T08:45:45;20.90;;;9.40;;
63653;SDS011;49809;47.418;19.080;2022-11-13T08:49:31;18.23;;;7.43;;
63653;SDS011;49809;47.418;19.080;2022-11-13T08:53:15;24.30;;;7.68;;
63653;SDS011;49809;47.418;19.080;2022-11-13T08:56:37;18.45;;;8.85;;
63653;SDS011;49809;47.418;19.080;2022-11-13T09:00:11;20.60;;;7.32;;
63653;SDS011;49809;47.418;19.080;2022-11-13T09:03:54;16.73;;;7.93;;
63653;SDS011;49809;47.418;19.080;2022-11-13T09:07:15;17.95;;;8.07;;
63653;SDS011;49809;47.418;19.080;2022-11-13T09:11:03;16.23;;;9.02;;
63653;SDS011;49809;47.418;19.080;2022-11-13T09:14:45;24.65;;;11.85;;
63653;SDS011;49809;47.418;19.080;2022-11-13T09:18:31;23.58;;;9.80;;
63653;SDS011;49809;47.418;19.080;2022-11-13T09:21:54;16.95;;;9.43;;
63653;SDS011;49809;47.418;19.080;2022-11-13T09:25:17;17.60;;;8.95;;
63653;SDS011;49809;47.418;19.080;2022-11-13T09:28:47;21.35;;;9.82;;
63653;SDS011;49809;47.418;19.080;2022-11-13T09:32:28;19.17;;;9.70;;
63653;SDS011;49809;47.418;19.080;2022-11-13T09:35:50;18.08;;;8.80;;
63653;SDS011;49809;47.418;19.080;2022-11-13T09:39:36;16.73;;;8.48;;
63653;SDS011;49809;47.418;19.080;2022-11-13T09:47:41;16.05;;;8.85;;
63653;SDS011;49809;47.418;19.080;2022-11-13T09:51:34;23.10;;;9.38;;
63653;SDS011;49809;47.418;19.080;2022-11-13T09:55:01;18.50;;;9.88;;
63653;SDS011;49809;47.418;19.080;2022-11-13T09:59:05;21.08;;;9.70;;
63653;SDS011;49809;47.418;19.080;2022-11-13T10:06:44;19.12;;;9.15;;
63653;SDS011;49809;47.418;19.080;2022-11-13T10:10:48;23.67;;;10.40;;
63653;SDS011;49809;47.418;19.080;2022-11-13T10:14:51;21.65;;;10.15;;
63653;SDS011;49809;47.418;19.080;2022-11-13T10:21:43;20.40;;;9.35;;
63653;SDS011;49809;47.418;19.080;2022-11-13T10:25:17;23.67;;;11.50;;
63653;SDS011;49809;47.418;19.080;2022-11-13T10:28:40;22.73;;;11.55;;
63653;SDS011;49809;47.418;19.080;2022-11-13T10:32:32;22.48;;;10.75;;
63653;SDS011;49809;47.418;19.080;2022-11-13T10:35:57;23.45;;;10.55;;
63653;SDS011;49809;47.418;19.080;2022-11-13T10:39:23;21.65;;;10.57;;
63653;SDS011;49809;47.418;19.080;2022-11-13T10:42:45;22.60;;;11.43;;
63653;SDS011;49809;47.418;19.080;2022-11-13T10:46:15;23.05;;;11.20;;
63653;SDS011;49809;47.418;19.080;2022-11-13T10:49:41;25.42;;;12.15;;
63653;SDS011;49809;47.418;19.080;2022-11-13T10:53:13;22.55;;;11.43;;
63653;SDS011;49809;47.418;19.080;2022-11-13T10:56:36;24.12;;;11.20;;
63653;SDS011;49809;47.418;19.080;2022-11-13T10:59:57;22.23;;;11.02;;
63653;SDS011;49809;47.418;19.080;2022-11-13T11:03:26;21.00;;;10.63;;
63653;SDS011;49809;47.418;19.080;2022-11-13T11:06:50;24.45;;;11.35;;
63653;SDS011;49809;47.418;19.080;2022-11-13T11:10:34;21.65;;;11.30;;
63653;SDS011;49809;47.418;19.080;2022-11-13T11:14:22;25.23;;;12.35;;
63653;SDS011;49809;47.418;19.080;2022-11-13T11:17:51;27.40;;;13.82;;
63653;SDS011;49809;47.418;19.080;2022-11-13T11:21:33;25.88;;;12.40;;
63653;SDS011;49809;47.418;19.080;2022-11-13T11:25:10;24.15;;;11.85;;
63653;SDS011;49809;47.418;19.080;2022-11-13T11:35:52;23.17;;;12.35;;
63653;SDS011;49809;47.418;19.080;2022-11-13T11:39:31;23.75;;;12.52;;
63653;SDS011;49809;47.418;19.080;2022-11-13T11:43:09;25.65;;;13.13;;
63653;SDS011;49809;47.418;19.080;2022-11-13T11:46:51;27.20;;;12.50;;
63653;SDS011;49809;47.418;19.080;2022-11-13T11:50:14;21.33;;;10.85;;
63653;SDS011;49809;47.418;19.080;2022-11-13T11:57:53;21.45;;;11.93;;
63653;SDS011;49809;47.418;19.080;2022-11-13T12:01:44;23.92;;;12.30;;
63653;SDS011;49809;47.418;19.080;2022-11-13T12:09:18;24.45;;;12.65;;
63653;SDS011;49809;47.418;19.080;2022-11-13T12:23:59;25.42;;;12.13;;
63653;SDS011;49809;47.418;19.080;2022-11-13T12:27:34;24.92;;;11.90;;
63653;SDS011;49809;47.418;19.080;2022-11-13T12:35:25;25.50;;;11.38;;
63653;SDS011;49809;47.418;19.080;2022-11-13T12:42:21;23.12;;;11.30;;
63653;SDS011;49809;47.418;19.080;2022-11-13T12:49:32;17.98;;;9.68;;
63653;SDS011;49809;47.418;19.080;2022-11-13T13:00:33;21.80;;;11.57;;
63653;SDS011;49809;47.418;19.080;2022-11-13T13:11:47;23.67;;;12.18;;
63653;SDS011;49809;47.418;19.080;2022-11-13T13:15:29;24.85;;;11.63;;
63653;SDS011;49809;47.418;19.080;2022-11-13T13:19:28;23.95;;;11.50;;
63653;SDS011;49809;47.418;19.080;2022-11-13T13:22:54;21.77;;;11.02;;
63653;SDS011;49809;47.418;19.080;2022-11-13T13:26:21;26.05;;;13.90;;
63653;SDS011;49809;47.418;19.080;2022-11-13T13:29:44;25.02;;;12.35;;
63653;SDS011;49809;47.418;19.080;2022-11-13T13:33:11;26.73;;;11.93;;
63653;SDS011;49809;47.418;19.080;2022-11-13T13:40:43;24.65;;;12.05;;
63653;SDS011;49809;47.418;19.080;2022-11-13T13:44:20;24.05;;;11.65;;
63653;SDS011;49809;47.418;19.080;2022-11-13T13:47:50;23.75;;;11.45;;
63653;SDS011;49809;47.418;19.080;2022-11-13T13:54:38;26.75;;;13.50;;
63653;SDS011;49809;47.418;19.080;2022-11-13T13:58:03;24.40;;;11.60;;
63653;SDS011;49809;47.418;19.080;2022-11-13T14:01:55;25.17;;;12.57;;
63653;SDS011;49809;47.418;19.080;2022-11-13T14:05:40;22.10;;;11.27;;
63653;SDS011;49809;47.418;19.080;2022-11-13T14:09:08;22.58;;;10.82;;
63653;SDS011;49809;47.418;19.080;2022-11-13T14:12:31;27.13;;;12.77;;
63653;SDS011;49809;47.418;19.080;2022-11-13T14:16:02;23.90;;;12.07;;
63653;SDS011;49809;47.418;19.080;2022-11-13T14:19:25;27.33;;;11.10;;
63653;SDS011;49809;47.418;19.080;2022-11-13T14:22:49;19.40;;;11.02;;
63653;SDS011;49809;47.418;19.080;2022-11-13T14:26:16;21.62;;;10.43;;
63653;SDS011;49809;47.418;19.080;2022-11-13T14:29:49;21.70;;;10.20;;
63653;SDS011;49809;47.418;19.080;2022-11-13T14:33:21;26.70;;;12.27;;
63653;SDS011;49809;47.418;19.080;2022-11-13T14:37:34;19.85;;;10.98;;
63653;SDS011;49809;47.418;19.080;2022-11-13T14:40:51;25.27;;;11.40;;
63653;SDS011;49809;47.418;19.080;2022-11-13T14:44:23;23.45;;;11.25;;
63653;SDS011;49809;47.418;19.080;2022-11-13T14:51:23;23.98;;;12.07;;
63653;SDS011;49809;47.418;19.080;2022-11-13T14:54:58;21.23;;;10.30;;
63653;SDS011;49809;47.418;19.080;2022-11-13T14:58:38;21.40;;;11.32;;
63653;SDS011;49809;47.418;19.080;2022-11-13T15:02:08;20.58;;;11.12;;
63653;SDS011;49809;47.418;19.080;2022-11-13T15:05:33;20.85;;;11.02;;
63653;SDS011;49809;47.418;19.080;2022-11-13T15:08:59;23.62;;;10.85;;
63653;SDS011;49809;47.418;19.080;2022-11-13T15:12:20;24.95;;;12.93;;
63653;SDS011;49809;47.418;19.080;2022-11-13T15:15:42;28.55;;;14.48;;
63653;SDS011;49809;47.418;19.080;2022-11-13T15:19:28;26.98;;;13.77;;
63653;SDS011;49809;47.418;19.080;2022-11-13T15:22:56;25.62;;;13.82;;
63653;SDS011;49809;47.418;19.080;2022-11-13T15:26:28;21.98;;;12.00;;
63653;SDS011;49809;47.418;19.080;2022-11-13T15:29:53;24.85;;;12.15;;
63653;SDS011;49809;47.418;19.080;2022-11-13T15:33:23;22.87;;;11.43;;
63653;SDS011;49809;47.418;19.080;2022-11-13T15:37:14;36.03;;;18.77;;
63653;SDS011;49809;47.418;19.080;2022-11-13T15:40:40;43.03;;;20.88;;
63653;SDS011;49809;47.418;19.080;2022-11-13T15:44:12;34.58;;;17.62;;
63653;SDS011;49809;47.418;19.080;2022-11-13T15:47:43;26.05;;;14.57;;
63653;SDS011;49809;47.418;19.080;2022-11-13T15:51:21;26.85;;;13.75;;
63653;SDS011;49809;47.418;19.080;2022-11-13T15:55:27;25.75;;;11.40;;
63653;SDS011;49809;47.418;19.080;2022-11-13T15:58:52;23.67;;;12.48;;
63653;SDS011;49809;47.418;19.080;2022-11-13T16:02:37;27.90;;;13.43;;
63653;SDS011;49809;47.418;19.080;2022-11-13T16:05:58;40.00;;;19.23;;
63653;SDS011;49809;47.418;19.080;2022-11-13T16:09:45;39.72;;;19.58;;
63653;SDS011;49809;47.418;19.080;2022-11-13T16:13:03;35.40;;;17.42;;
63653;SDS011;49809;47.418;19.080;2022-11-13T16:16:44;28.20;;;13.85;;
63653;SDS011;49809;47.418;19.080;2022-11-13T16:20:08;29.27;;;14.60;;
63653;SDS011;49809;47.418;19.080;2022-11-13T16:23:59;36.05;;;15.25;;
63653;SDS011;49809;47.418;19.080;2022-11-13T16:27:28;36.42;;;15.93;;
63653;SDS011;49809;47.418;19.080;2022-11-13T16:30:49;35.13;;;14.60;;
63653;SDS011;49809;47.418;19.080;2022-11-13T16:34:08;27.60;;;14.43;;
63653;SDS011;49809;47.418;19.080;2022-11-13T16:37:49;28.90;;;13.60;;
63653;SDS011;49809;47.418;19.080;2022-11-13T16:41:29;27.27;;;12.90;;
63653;SDS011;49809;47.418;19.080;2022-11-13T16:44:55;40.20;;;13.68;;
63653;SDS011;49809;47.418;19.080;2022-11-13T16:48:17;25.90;;;12.88;;
63653;SDS011;49809;47.418;19.080;2022-11-13T16:51:57;33.58;;;14.02;;
63653;SDS011;49809;47.418;19.080;2022-11-13T16:55:23;24.90;;;13.55;;
63653;SDS011;49809;47.418;19.080;2022-11-13T16:58:45;25.77;;;12.43;;
63653;SDS011;49809;47.418;19.080;2022-11-13T17:02:13;31.37;;;13.32;;
63653;SDS011;49809;47.418;19.080;2022-11-13T17:05:38;30.17;;;14.82;;
63653;SDS011;49809;47.418;19.080;2022-11-13T17:09:01;35.83;;;16.27;;
63653;SDS011;49809;47.418;19.080;2022-11-13T17:12:35;34.05;;;15.48;;
63653;SDS011;49809;47.418;19.080;2022-11-13T17:16:12;31.53;;;15.43;;
63653;SDS011;49809;47.418;19.080;2022-11-13T17:19:40;28.15;;;12.18;;
63653;SDS011;49809;47.418;19.080;2022-11-13T17:23:15;28.15;;;13.52;;
63653;SDS011;49809;47.418;19.080;2022-11-13T17:26:36;30.15;;;14.35;;
63653;SDS011;49809;47.418;19.080;2022-11-13T17:30:20;26.42;;;12.25;;
63653;SDS011;49809;47.418;19.080;2022-11-13T17:33:44;19.42;;;10.77;;
63653;SDS011;49809;47.418;19.080;2022-11-13T17:37:05;29.75;;;12.65;;
63653;SDS011;49809;47.418;19.080;2022-11-13T17:40:26;25.42;;;12.37;;
63653;SDS011;49809;47.418;19.080;2022-11-13T17:43:50;20.33;;;10.70;;
63653;SDS011;49809;47.418;19.080;2022-11-13T17:47:24;18.87;;;9.95;;
63653;SDS011;49809;47.418;19.080;2022-11-13T17:51:11;32.42;;;11.23;;
63653;SDS011;49809;47.418;19.080;2022-11-13T17:54:35;19.67;;;11.07;;
63653;SDS011;49809;47.418;19.080;2022-11-13T17:57:59;20.58;;;11.18;;
63653;SDS011;49809;47.418;19.080;2022-11-13T18:01:44;23.58;;;10.45;;
63653;SDS011;49809;47.418;19.080;2022-11-13T18:08:45;19.20;;;11.02;;
63653;SDS011;49809;47.418;19.080;2022-11-13T18:12:28;19.45;;;10.48;;
63653;SDS011;49809;47.418;19.080;2022-11-13T18:15:49;28.52;;;10.38;;
63653;SDS011;49809;47.418;19.080;2022-11-13T18:19:11;22.40;;;11.05;;
63653;SDS011;49809;47.418;19.080;2022-11-13T18:22:52;24.70;;;11.40;;
63653;SDS011;49809;47.418;19.080;2022-11-13T18:26:16;20.67;;;10.90;;
63653;SDS011;49809;47.418;19.080;2022-11-13T18:29:45;17.98;;;9.80;;
63653;SDS011;49809;47.418;19.080;2022-11-13T18:33:06;20.23;;;9.15;;
63653;SDS011;49809;47.418;19.080;2022-11-13T18:36:28;24.17;;;9.23;;
63653;SDS011;49809;47.418;19.080;2022-11-13T18:39:55;22.20;;;8.98;;
63653;SDS011;49809;47.418;19.080;2022-11-13T18:46:53;18.08;;;9.43;;
63653;SDS011;49809;47.418;19.080;2022-11-13T18:50:25;25.37;;;9.82;;
63653;SDS011;49809;47.418;19.080;2022-11-13T18:53:49;23.17;;;10.30;;
63653;SDS011;49809;47.418;19.080;2022-11-13T18:57:11;20.70;;;10.38;;
63653;SDS011;49809;47.418;19.080;2022-11-13T19:00:35;25.58;;;11.57;;
63653;SDS011;49809;47.418;19.080;2022-11-13T19:04:02;23.33;;;10.50;;
63653;SDS011;49809;47.418;19.080;2022-11-13T19:07:57;23.30;;;10.57;;
63653;SDS011;49809;47.418;19.080;2022-11-13T19:11:19;27.60;;;11.23;;
63653;SDS011;49809;47.418;19.080;2022-11-13T19:14:44;24.85;;;12.23;;
63653;SDS011;49809;47.418;19.080;2022-11-13T19:18:05;26.67;;;13.57;;
63653;SDS011;49809;47.418;19.080;2022-11-13T19:21:31;30.00;;;11.52;;
63653;SDS011;49809;47.418;19.080;2022-11-13T19:25:18;26.42;;;10.93;;
63653;SDS011;49809;47.418;19.080;2022-11-13T19:28:39;24.98;;;12.73;;
63653;SDS011;49809;47.418;19.080;2022-11-13T19:32:23;23.80;;;11.52;;
63653;SDS011;49809;47.418;19.080;2022-11-13T19:35:54;27.73;;;12.77;;
63653;SDS011;49809;47.418;19.080;2022-11-13T19:39:19;17.90;;;10.68;;
63653;SDS011;49809;47.418;19.080;2022-11-13T19:42:41;40.60;;;12.73;;
63653;SDS011;49809;47.418;19.080;2022-11-13T19:46:03;30.42;;;12.15;;
63653;SDS011;49809;47.418;19.080;2022-11-13T19:49:49;22.52;;;10.80;;
63653;SDS011;49809;47.418;19.080;2022-11-13T19:53:30;25.67;;;10.65;;
63653;SDS011;49809;47.418;19.080;2022-11-13T19:56:52;29.42;;;10.35;;
63653;SDS011;49809;47.418;19.080;2022-11-13T20:00:21;23.50;;;10.55;;
63653;SDS011;49809;47.418;19.080;2022-11-13T20:03:44;26.02;;;11.07;;
63653;SDS011;49809;47.418;19.080;2022-11-13T20:07:09;31.15;;;11.75;;
63653;SDS011;49809;47.418;19.080;2022-11-13T20:10:33;21.98;;;10.20;;
63653;SDS011;49809;47.418;19.080;2022-11-13T20:14:14;26.52;;;10.73;;
63653;SDS011;49809;47.418;19.080;2022-11-13T20:17:37;21.12;;;10.18;;
63653;SDS011;49809;47.418;19.080;2022-11-13T20:20:58;16.65;;;8.88;;
63653;SDS011;49809;47.418;19.080;2022-11-13T20:24:19;16.40;;;9.23;;
63653;SDS011;49809;47.418;19.080;2022-11-13T20:27:40;20.17;;;11.57;;
63653;SDS011;49809;47.418;19.080;2022-11-13T20:35:53;17.35;;;8.82;;
63653;SDS011;49809;47.418;19.080;2022-11-13T20:39:17;13.93;;;8.57;;
63653;SDS011;49809;47.418;19.080;2022-11-13T20:42:41;16.80;;;8.27;;
63653;SDS011;49809;47.418;19.080;2022-11-13T20:46:08;18.87;;;8.52;;
63653;SDS011;49809;47.418;19.080;2022-11-13T20:49:30;14.43;;;7.35;;
63653;SDS011;49809;47.418;19.080;2022-11-13T20:53:11;17.42;;;8.82;;
63653;SDS011;49809;47.418;19.080;2022-11-13T20:56:54;15.35;;;7.18;;
63653;SDS011;49809;47.418;19.080;2022-11-13T21:00:31;24.80;;;11.17;;
63653;SDS011;49809;47.418;19.080;2022-11-13T21:04:01;19.73;;;8.15;;
63653;SDS011;49809;47.418;19.080;2022-11-13T21:07:32;18.30;;;9.80;;
63653;SDS011;49809;47.418;19.080;2022-11-13T21:11:05;18.75;;;9.38;;
63653;SDS011;49809;47.418;19.080;2022-11-13T21:14:53;27.25;;;8.20;;
63653;SDS011;49809;47.418;19.080;2022-11-13T21:22:27;15.43;;;7.90;;
63653;SDS011;49809;47.418;19.080;2022-11-13T21:26:19;23.48;;;10.32;;
63653;SDS011;49809;47.418;19.080;2022-11-13T21:30:07;18.17;;;9.25;;
63653;SDS011;49809;47.418;19.080;2022-11-13T21:33:47;20.42;;;11.30;;
63653;SDS011;49809;47.418;19.080;2022-11-13T21:37:26;17.23;;;9.88;;
63653;SDS011;49809;47.418;19.080;2022-11-13T21:41:10;22.33;;;9.88;;
63653;SDS011;49809;47.418;19.080;2022-11-13T21:44:54;14.05;;;7.95;;
63653;SDS011;49809;47.418;19.080;2022-11-13T21:48:28;15.60;;;9.65;;
63653;SDS011;49809;47.418;19.080;2022-11-13T21:51:52;23.75;;;8.65;;
63653;SDS011;49809;47.418;19.080;2022-11-13T21:55:14;24.42;;;7.70;;
63653;SDS011;49809;47.418;19.080;2022-11-13T21:58:33;29.40;;;9.57;;
63653;SDS011;49809;47.418;19.080;2022-11-13T22:02:10;17.58;;;8.02;;
63653;SDS011;49809;47.418;19.080;2022-11-13T22:05:33;10.85;;;7.03;;
63653;SDS011;49809;47.418;19.080;2022-11-13T22:09:12;15.77;;;7.50;;
63653;SDS011;49809;47.418;19.080;2022-11-13T22:12:46;13.05;;;6.75;;
63653;SDS011;49809;47.418;19.080;2022-11-13T22:16:04;11.98;;;6.35;;
63653;SDS011;49809;47.418;19.080;2022-11-13T22:19:54;12.50;;;7.32;;
63653;SDS011;49809;47.418;19.080;2022-11-13T22:23:13;15.07;;;6.62;;
63653;SDS011;49809;47.418;19.080;2022-11-13T22:26:36;15.32;;;7.93;;
63653;SDS011;49809;47.418;19.080;2022-11-13T22:30:15;15.45;;;6.62;;